This is the latest recevied weather packets stored in our database for station/object W4CKA. If no packets are shown the sender has not sent any weather packets the latest 10 day(s).
| Time | Temp. | Humidity | Pressure | Rain* | Wind** | Luminosity | Snow |
|---|---|---|---|---|---|---|---|
| 1787435626 | 29.44° C | 69% | 1055.2 hPa | 0 mm | - | 209 W/m² | - |
| 1787435024 | 28.89° C | 75% | 1055.1 hPa | 0 mm | - | 308 W/m² | - |
| 1787434422 | 28.89° C | 72% | 1055.2 hPa | 0 mm | - | 308 W/m² | - |
| 1787433819 | 30.56° C | 65% | 1055.1 hPa | 0 mm | - | 87 W/m² | - |
| 1787433215 | 30.56° C | 66% | 1055.3 hPa | 0 mm | - | 354 W/m² | - |
| 1787432613 | 30° C | 75% | 1055.1 hPa | 0 mm | - | 471 W/m² | - |
| 1787432014 | 31.11° C | 67% | 1055.5 hPa | 0 mm | - | 347 W/m² | - |
| 1787431408 | 30° C | 72% | 1055.7 hPa | 0 mm | - | 219 W/m² | - |
| 1787430807 | 28.89° C | 70% | 1055.5 hPa | 0 mm | - | 448 W/m² | - |
| 1787430205 | 30° C | 70% | 1055.7 hPa | 0 mm | - | 144 W/m² | - |
| 1787429601 | 30° C | 68% | 1055.7 hPa | 0 mm | - | 522 W/m² | - |
| 1787428998 | 29.44° C | 69% | 1056 hPa | 0 mm | - | 571 W/m² | - |
| 1787428394 | 31.11° C | 67% | 1056 hPa | 0 mm | - | 580 W/m² | - |
| 1787427790 | 30° C | 69% | 1056.2 hPa | 0 mm | - | 508 W/m² | - |
| 1787427188 | 30.56° C | 71% | 1056.3 hPa | 0 mm | - | 623 W/m² | - |
| 1787426583 | 30° C | 70% | 1056.6 hPa | 0 mm | - | 623 W/m² | - |
| 1787425982 | 28.89° C | 74% | 1056.6 hPa | 0 mm | - | 617 W/m² | - |
| 1787425380 | 30° C | 74% | 1056.8 hPa | 0 mm | - | 674 W/m² | - |
| 1787424779 | 28.89° C | 74% | 1056.9 hPa | 0 mm | - | 676 W/m² | - |
| 1787424176 | 28.89° C | 74% | 1056.9 hPa | 0 mm | - | 143 W/m² | - |
| 1787423574 | 29.44° C | 69% | 1057 hPa | 0 mm | - | 186 W/m² | - |
| 1787422971 | 29.44° C | 72% | 1057 hPa | 0 mm | - | 777 W/m² | - |
| 1787422369 | 29.44° C | 73% | 1057.1 hPa | 0 mm | - | 619 W/m² | - |
| 1787421766 | 28.89° C | 77% | 1057.2 hPa | 0 mm | - | 779 W/m² | - |
| 1787421162 | 29.44° C | 77% | 1057.4 hPa | 0 mm | - | 296 W/m² | - |
* Rain latest hour (hover to see other rain measurements)
** Current wind speed in m/s (hover to see current wind gust speed)